createdAt,value
2023-04-22T00:01:30.315Z,3.25
2023-04-22T00:06:55.493Z,3.75
2023-04-22T00:12:20.234Z,2.85
2023-04-22T00:17:46.071Z,3.33
2023-04-22T00:23:12.543Z,3.60
2023-04-22T00:28:36.659Z,3.55
2023-04-22T00:34:02.247Z,3.33
2023-04-22T00:39:26.644Z,3.47
2023-04-22T00:44:50.708Z,3.05
2023-04-22T00:50:16.078Z,3.60
2023-04-22T00:55:39.256Z,3.42
2023-04-22T01:01:02.371Z,5.25
2023-04-22T01:06:26.997Z,6.35
2023-04-22T01:11:50.011Z,8.30
2023-04-22T01:17:14.441Z,8.77
2023-04-22T01:22:42.506Z,8.57
2023-04-22T01:28:09.033Z,5.53
2023-04-22T01:33:34.921Z,5.05
2023-04-22T01:38:58.409Z,4.82
2023-04-22T01:44:24.380Z,4.60
2023-04-22T01:49:49.532Z,4.97
2023-04-22T01:55:13.307Z,4.90
2023-04-22T02:00:38.872Z,4.40
2023-04-22T02:06:03.497Z,4.82
2023-04-22T02:11:30.779Z,4.22
2023-04-22T02:16:55.708Z,5.38
2023-04-22T02:22:19.151Z,5.53
2023-04-22T02:27:44.530Z,5.25
2023-04-22T02:33:11.221Z,4.95
2023-04-22T02:38:34.271Z,5.10
2023-04-22T02:43:58.659Z,5.10
2023-04-22T02:54:53.464Z,5.18
2023-04-22T03:00:17.808Z,6.00
2023-04-22T03:05:42.162Z,5.95
2023-04-22T03:11:09.120Z,6.60
2023-04-22T03:16:34.137Z,5.63
2023-04-22T03:22:01.923Z,5.35
2023-04-22T03:27:28.852Z,6.72
2023-04-22T03:32:56.135Z,5.93
2023-04-22T03:38:25.802Z,6.18
2023-04-22T03:43:50.860Z,5.47
2023-04-22T03:49:15.427Z,6.18
2023-04-22T03:54:41.117Z,5.63
2023-04-22T04:00:07.510Z,5.68
2023-04-22T04:05:38.185Z,5.07
2023-04-22T04:11:02.041Z,5.65
2023-04-22T04:16:28.996Z,5.22
2023-04-22T04:22:00.725Z,5.32
2023-04-22T04:27:27.957Z,5.38
2023-04-22T04:32:55.888Z,5.85
2023-04-22T04:38:20.035Z,5.35
2023-04-22T04:43:46.440Z,6.25
2023-04-22T04:49:31.609Z,6.20
2023-04-22T04:54:57.540Z,7.28
2023-04-22T05:00:22.924Z,5.88
2023-04-22T05:05:49.785Z,6.75
2023-04-22T05:11:14.126Z,5.80
2023-04-22T05:16:40.344Z,6.35
2023-04-22T05:22:08.071Z,6.07
2023-04-22T05:27:32.750Z,6.28
2023-04-22T05:38:32.208Z,5.47
2023-04-22T05:43:58.983Z,6.20
2023-04-22T05:49:24.621Z,4.97
2023-04-22T05:55:14.591Z,4.05
2023-04-22T06:00:38.771Z,5.55
2023-04-22T06:06:18.449Z,4.75
2023-04-22T06:11:46.930Z,4.88
2023-04-22T06:17:12.387Z,4.75
2023-04-22T06:22:41.095Z,4.60
2023-04-22T06:28:08.797Z,4.18
2023-04-22T06:33:38.361Z,5.28
2023-04-22T06:39:07.497Z,3.60
2023-04-22T06:44:43.455Z,4.00
2023-04-22T06:50:32.045Z,4.88
2023-04-22T06:56:01.327Z,3.30
2023-04-22T07:01:31.443Z,3.63
2023-04-22T07:07:00.171Z,2.83
2023-04-22T07:12:29.884Z,2.72
2023-04-22T07:17:59.594Z,3.47
2023-04-22T07:23:24.695Z,2.83
2023-04-22T07:28:53.018Z,1.85
2023-04-22T07:34:22.656Z,2.50
2023-04-22T07:39:51.082Z,3.13
2023-04-22T07:45:16.539Z,2.85
2023-04-22T07:50:46.596Z,2.63
2023-04-22T07:56:13.900Z,2.30
2023-04-22T08:01:42.068Z,3.13
2023-04-22T08:12:39.714Z,2.58
2023-04-22T08:18:05.351Z,2.10
2023-04-22T08:23:35.413Z,2.15
2023-04-22T08:29:02.244Z,2.45
2023-04-22T08:34:27.790Z,3.53
2023-04-22T08:39:54.172Z,3.35
2023-04-22T08:45:18.266Z,2.25
2023-04-22T08:50:44.653Z,1.98
2023-04-22T08:56:11.796Z,2.47
2023-04-22T09:01:36.067Z,2.30
2023-04-22T09:07:00.980Z,3.08
2023-04-22T09:12:27.683Z,1.85
2023-04-22T09:17:52.554Z,2.30
2023-04-22T09:23:17.193Z,2.80
2023-04-22T09:28:50.678Z,1.63
2023-04-22T09:34:15.191Z,2.63
2023-04-22T09:39:42.932Z,3.22
2023-04-22T09:45:09.012Z,2.80
2023-04-22T09:50:32.644Z,2.33
2023-04-22T09:55:56.210Z,3.00
2023-04-22T10:01:21.035Z,1.80
2023-04-22T10:06:44.983Z,1.60
2023-04-22T10:12:09.307Z,2.33
2023-04-22T10:17:37.821Z,2.30
2023-04-22T10:28:29.539Z,1.95
2023-04-22T10:34:09.817Z,2.20
2023-04-22T10:39:33.716Z,1.67
2023-04-22T10:45:01.757Z,2.10
2023-04-22T10:50:27.816Z,1.92
2023-04-22T10:55:53.167Z,1.50
2023-04-22T11:01:17.554Z,4.43
2023-04-22T11:06:42.956Z,2.05
2023-04-22T11:12:25.147Z,2.08
2023-04-22T11:17:51.224Z,2.20
2023-04-22T11:23:20.673Z,2.53
2023-04-22T11:28:46.766Z,2.22
2023-04-22T11:34:11.143Z,1.92
2023-04-22T11:39:46.526Z,2.35
2023-04-22T11:45:16.249Z,2.43
2023-04-22T11:50:44.136Z,1.95
2023-04-22T11:56:09.897Z,1.25
2023-04-22T12:01:33.193Z,2.05
2023-04-22T12:06:56.979Z,2.13
2023-04-22T12:12:24.904Z,1.20
2023-04-22T12:17:50.794Z,2.63
2023-04-22T12:23:15.911Z,1.70
2023-04-22T12:28:42.808Z,2.72
2023-04-22T12:34:07.623Z,2.58
2023-04-22T12:39:32.329Z,1.60
2023-04-22T12:44:57.610Z,1.63
2023-04-22T12:50:21.619Z,2.20
2023-04-22T12:55:46.202Z,1.90
2023-04-22T13:01:11.458Z,2.13
2023-04-22T13:06:36.395Z,2.33
2023-04-22T13:12:03.032Z,1.38
2023-04-22T13:17:29.222Z,2.70
2023-04-22T13:22:55.187Z,3.63
2023-04-22T13:28:19.452Z,2.85
2023-04-22T13:33:45.176Z,3.33
2023-04-22T13:39:10.803Z,2.13
2023-04-22T13:44:35.402Z,1.90
2023-04-22T13:50:02.107Z,3.30
2023-04-22T13:55:27.673Z,2.10
2023-04-22T14:00:52.020Z,2.78
2023-04-22T14:06:17.454Z,3.45
2023-04-22T14:11:41.712Z,3.33
2023-04-22T14:17:05.818Z,2.08
2023-04-22T14:22:31.618Z,2.92
2023-04-22T14:27:56.529Z,9.43
2023-04-22T14:33:21.452Z,4.65
2023-04-22T14:38:47.852Z,4.05
2023-04-22T14:44:12.283Z,4.60
2023-04-22T14:49:36.936Z,6.97
2023-04-22T14:55:19.416Z,5.25
2023-04-22T15:00:45.948Z,3.35
2023-04-22T15:06:09.553Z,2.70
2023-04-22T15:11:34.968Z,3.05
2023-04-22T15:16:58.748Z,2.15
2023-04-22T15:22:22.603Z,4.65
2023-04-22T15:27:52.347Z,2.97
2023-04-22T15:33:17.421Z,2.85
2023-04-22T15:38:41.417Z,3.08
2023-04-22T15:44:08.769Z,3.28
2023-04-22T15:49:34.533Z,4.07
2023-04-22T15:54:58.802Z,3.40
2023-04-22T16:00:24.134Z,3.65
2023-04-22T16:05:48.872Z,5.07
2023-04-22T16:11:16.746Z,4.07
2023-04-22T16:16:42.849Z,3.70
2023-04-22T16:22:08.530Z,3.72
2023-04-22T16:27:33.374Z,4.03
2023-04-22T16:32:59.060Z,7.03
2023-04-22T16:38:22.704Z,5.53
2023-04-22T16:43:47.830Z,7.10
2023-04-22T16:49:14.423Z,6.32
2023-04-22T16:54:38.601Z,7.18
2023-04-22T17:00:02.471Z,7.70
2023-04-22T17:05:27.986Z,5.22
2023-04-22T17:10:52.481Z,3.67
2023-04-22T17:16:16.352Z,3.53
2023-04-22T17:21:41.135Z,4.32
2023-04-22T17:27:04.752Z,4.65
2023-04-22T17:32:29.979Z,3.88
2023-04-22T17:37:55.052Z,4.18
2023-04-22T17:43:19.478Z,4.40
2023-04-22T17:48:46.661Z,6.03
2023-04-22T17:54:12.300Z,5.03
2023-04-22T17:59:36.608Z,5.65
2023-04-22T18:05:01.071Z,5.35
2023-04-22T18:10:27.664Z,6.38
2023-04-22T18:15:52.008Z,8.05
2023-04-22T18:21:16.446Z,7.65
2023-04-22T18:26:44.456Z,8.85
2023-04-22T18:32:08.934Z,7.75
2023-04-22T18:37:34.587Z,7.80
2023-04-22T18:43:00.224Z,9.15
2023-04-22T18:48:24.407Z,9.82
2023-04-22T18:53:51.024Z,9.65
2023-04-22T18:59:15.987Z,9.93
2023-04-22T19:04:40.817Z,12.70
2023-04-22T19:10:07.496Z,11.73
2023-04-22T19:15:33.424Z,12.23
2023-04-22T19:20:57.699Z,11.40
2023-04-22T19:26:23.246Z,13.18
2023-04-22T19:31:48.715Z,13.73
2023-04-22T19:37:13.408Z,14.15
2023-04-22T19:42:37.733Z,14.88
2023-04-22T19:48:04.708Z,15.13
2023-04-22T19:53:30.171Z,14.07
2023-04-22T19:58:53.743Z,12.73
2023-04-22T20:04:20.004Z,12.73
2023-04-22T20:09:46.643Z,13.55
2023-04-22T20:15:11.917Z,12.50
2023-04-22T20:20:38.785Z,13.35
2023-04-22T20:26:04.600Z,13.80
2023-04-22T20:31:28.921Z,13.80
2023-04-22T20:36:54.872Z,12.63
2023-04-22T20:42:19.733Z,13.52
2023-04-22T20:47:44.709Z,11.95
2023-04-22T20:53:11.704Z,11.80
2023-04-22T20:58:37.061Z,11.57
2023-04-22T21:04:06.489Z,12.00
2023-04-22T21:09:33.083Z,11.48
2023-04-22T21:14:57.519Z,10.95
2023-04-22T21:20:24.175Z,11.77
2023-04-22T21:25:50.298Z,11.50
2023-04-22T21:31:15.684Z,11.30
2023-04-22T21:36:39.898Z,11.80
2023-04-22T21:42:08.079Z,11.40
2023-04-22T21:47:32.925Z,11.03
2023-04-22T21:52:56.930Z,10.20
2023-04-22T21:58:24.087Z,9.93
2023-04-22T22:03:48.791Z,10.82
2023-04-22T22:09:14.181Z,10.93
2023-04-22T22:20:13.252Z,10.00
2023-04-22T22:25:42.252Z,10.63
2023-04-22T22:31:07.224Z,10.45
2023-04-22T22:36:32.903Z,11.32
2023-04-22T22:41:58.265Z,11.70
2023-04-22T22:47:24.832Z,11.35
2023-04-22T22:52:49.738Z,12.77
2023-04-22T22:58:14.697Z,10.85
2023-04-22T23:03:38.720Z,10.02
2023-04-22T23:09:03.836Z,9.13
2023-04-22T23:14:28.510Z,9.60
2023-04-22T23:19:52.994Z,9.70
2023-04-22T23:25:19.913Z,8.48
2023-04-22T23:30:47.333Z,7.80
2023-04-22T23:36:14.270Z,7.75
2023-04-22T23:41:39.492Z,7.32
2023-04-22T23:47:05.326Z,7.75
2023-04-22T23:52:30.408Z,8.25
2023-04-22T23:57:57.966Z,7.47
